sensor_id;sensor_type;location;lat;lon;timestamp;temperature;humidity
21559;DHT22;10940;48.890;8.240;2023-07-29T00:01:51;18.10;99.90
21559;DHT22;10940;48.890;8.240;2023-07-29T00:04:17;18.10;99.90
21559;DHT22;10940;48.890;8.240;2023-07-29T00:06:42;18.10;99.90
21559;DHT22;10940;48.890;8.240;2023-07-29T00:09:08;18.10;99.90
21559;DHT22;10940;48.890;8.240;2023-07-29T00:11:34;18.10;99.90
21559;DHT22;10940;48.890;8.240;2023-07-29T00:14:01;18.10;99.90
21559;DHT22;10940;48.890;8.240;2023-07-29T00:16:26;18.10;99.90
21559;DHT22;10940;48.890;8.240;2023-07-29T00:18:52;18.10;99.90
21559;DHT22;10940;48.890;8.240;2023-07-29T00:21:18;18.10;99.90
21559;DHT22;10940;48.890;8.240;2023-07-29T00:23:44;18.00;99.90
21559;DHT22;10940;48.890;8.240;2023-07-29T00:26:10;18.10;99.90
21559;DHT22;10940;48.890;8.240;2023-07-29T00:28:35;18.00;99.90
21559;DHT22;10940;48.890;8.240;2023-07-29T00:31:02;18.00;99.90
21559;DHT22;10940;48.890;8.240;2023-07-29T00:33:27;18.00;99.90
21559;DHT22;10940;48.890;8.240;2023-07-29T00:35:53;17.90;99.90
21559;DHT22;10940;48.890;8.240;2023-07-29T00:38:19;17.90;99.90
21559;DHT22;10940;48.890;8.240;2023-07-29T00:40:46;18.00;99.90
21559;DHT22;10940;48.890;8.240;2023-07-29T00:43:11;18.00;99.90
21559;DHT22;10940;48.890;8.240;2023-07-29T00:45:37;18.00;99.90
21559;DHT22;10940;48.890;8.240;2023-07-29T00:48:03;18.10;99.90
21559;DHT22;10940;48.890;8.240;2023-07-29T00:50:31;18.00;99.90
21559;DHT22;10940;48.890;8.240;2023-07-29T00:52:57;18.10;99.90
21559;DHT22;10940;48.890;8.240;2023-07-29T00:55:24;18.10;99.90
21559;DHT22;10940;48.890;8.240;2023-07-29T00:57:51;18.10;99.90
21559;DHT22;10940;48.890;8.240;2023-07-29T01:00:18;18.00;99.90
21559;DHT22;10940;48.890;8.240;2023-07-29T01:02:44;18.00;99.90
21559;DHT22;10940;48.890;8.240;2023-07-29T01:05:13;18.10;99.90
21559;DHT22;10940;48.890;8.240;2023-07-29T01:10:19;18.00;99.90
21559;DHT22;10940;48.890;8.240;2023-07-29T01:13:05;17.90;99.90
21559;DHT22;10940;48.890;8.240;2023-07-29T01:15:33;17.90;99.90
21559;DHT22;10940;48.890;8.240;2023-07-29T01:18:08;17.90;99.90
21559;DHT22;10940;48.890;8.240;2023-07-29T01:20:41;17.80;99.90
21559;DHT22;10940;48.890;8.240;2023-07-29T01:23:08;17.80;99.90
21559;DHT22;10940;48.890;8.240;2023-07-29T01:25:34;17.80;99.90
21559;DHT22;10940;48.890;8.240;2023-07-29T01:28:00;17.80;99.90
21559;DHT22;10940;48.890;8.240;2023-07-29T01:30:30;17.80;99.90
21559;DHT22;10940;48.890;8.240;2023-07-29T01:35:51;17.80;99.90
21559;DHT22;10940;48.890;8.240;2023-07-29T01:38:23;17.80;99.90
21559;DHT22;10940;48.890;8.240;2023-07-29T01:40:50;17.80;99.90
21559;DHT22;10940;48.890;8.240;2023-07-29T01:43:16;17.80;99.90
21559;DHT22;10940;48.890;8.240;2023-07-29T01:45:44;17.80;99.90
21559;DHT22;10940;48.890;8.240;2023-07-29T01:48:10;17.80;99.90
21559;DHT22;10940;48.890;8.240;2023-07-29T01:50:35;17.90;99.90
21559;DHT22;10940;48.890;8.240;2023-07-29T01:53:01;17.90;99.90
21559;DHT22;10940;48.890;8.240;2023-07-29T01:55:27;17.90;99.90
21559;DHT22;10940;48.890;8.240;2023-07-29T01:57:52;17.90;99.90
21559;DHT22;10940;48.890;8.240;2023-07-29T02:00:19;17.90;99.90
21559;DHT22;10940;48.890;8.240;2023-07-29T02:02:45;18.00;99.90
21559;DHT22;10940;48.890;8.240;2023-07-29T02:05:10;17.90;99.90
21559;DHT22;10940;48.890;8.240;2023-07-29T02:07:36;18.00;99.90
21559;DHT22;10940;48.890;8.240;2023-07-29T02:10:02;18.00;99.90
21559;DHT22;10940;48.890;8.240;2023-07-29T02:12:27;17.90;99.90
21559;DHT22;10940;48.890;8.240;2023-07-29T02:14:53;18.00;99.90
21559;DHT22;10940;48.890;8.240;2023-07-29T02:17:19;17.90;99.90
21559;DHT22;10940;48.890;8.240;2023-07-29T02:19:44;18.00;99.90
21559;DHT22;10940;48.890;8.240;2023-07-29T02:22:13;17.90;99.90
21559;DHT22;10940;48.890;8.240;2023-07-29T02:24:39;18.00;99.90
21559;DHT22;10940;48.890;8.240;2023-07-29T02:27:05;18.10;99.90
21559;DHT22;10940;48.890;8.240;2023-07-29T02:29:30;18.10;99.90
21559;DHT22;10940;48.890;8.240;2023-07-29T02:31:58;18.00;99.90
21559;DHT22;10940;48.890;8.240;2023-07-29T02:34:24;18.10;99.90
21559;DHT22;10940;48.890;8.240;2023-07-29T02:36:49;18.10;99.90
21559;DHT22;10940;48.890;8.240;2023-07-29T02:39:15;18.10;99.90
21559;DHT22;10940;48.890;8.240;2023-07-29T02:41:40;18.10;99.90
21559;DHT22;10940;48.890;8.240;2023-07-29T02:44:06;18.10;99.90
21559;DHT22;10940;48.890;8.240;2023-07-29T02:46:32;18.10;99.90
21559;DHT22;10940;48.890;8.240;2023-07-29T02:48:57;18.00;99.90
21559;DHT22;10940;48.890;8.240;2023-07-29T02:51:23;18.00;99.90
21559;DHT22;10940;48.890;8.240;2023-07-29T02:53:49;18.10;99.90
21559;DHT22;10940;48.890;8.240;2023-07-29T02:56:14;18.10;99.90
21559;DHT22;10940;48.890;8.240;2023-07-29T02:58:40;18.10;99.90
21559;DHT22;10940;48.890;8.240;2023-07-29T03:01:06;18.00;99.90
21559;DHT22;10940;48.890;8.240;2023-07-29T03:03:32;18.00;99.90
21559;DHT22;10940;48.890;8.240;2023-07-29T03:05:59;18.00;99.90
21559;DHT22;10940;48.890;8.240;2023-07-29T03:08:26;17.90;99.90
21559;DHT22;10940;48.890;8.240;2023-07-29T03:10:52;17.90;99.90
21559;DHT22;10940;48.890;8.240;2023-07-29T03:13:17;17.80;99.90
21559;DHT22;10940;48.890;8.240;2023-07-29T03:15:43;17.80;99.90
21559;DHT22;10940;48.890;8.240;2023-07-29T03:18:08;17.80;99.90
21559;DHT22;10940;48.890;8.240;2023-07-29T03:20:34;17.70;99.90
21559;DHT22;10940;48.890;8.240;2023-07-29T03:23:00;17.80;99.90
21559;DHT22;10940;48.890;8.240;2023-07-29T03:25:25;17.70;99.90
21559;DHT22;10940;48.890;8.240;2023-07-29T03:27:51;17.70;99.90
21559;DHT22;10940;48.890;8.240;2023-07-29T03:30:22;17.80;99.90
21559;DHT22;10940;48.890;8.240;2023-07-29T03:32:49;17.80;99.90
21559;DHT22;10940;48.890;8.240;2023-07-29T03:35:15;17.80;99.90
21559;DHT22;10940;48.890;8.240;2023-07-29T03:37:41;17.80;99.90
21559;DHT22;10940;48.890;8.240;2023-07-29T03:40:07;17.90;99.90
21559;DHT22;10940;48.890;8.240;2023-07-29T03:42:34;17.90;99.90
21559;DHT22;10940;48.890;8.240;2023-07-29T03:45:00;18.00;99.90
21559;DHT22;10940;48.890;8.240;2023-07-29T03:47:26;18.10;99.90
21559;DHT22;10940;48.890;8.240;2023-07-29T03:49:52;18.10;99.90
21559;DHT22;10940;48.890;8.240;2023-07-29T03:52:17;18.00;99.90
21559;DHT22;10940;48.890;8.240;2023-07-29T03:54:43;18.10;99.90
21559;DHT22;10940;48.890;8.240;2023-07-29T03:57:08;18.10;99.90
21559;DHT22;10940;48.890;8.240;2023-07-29T03:59:34;18.20;99.90
21559;DHT22;10940;48.890;8.240;2023-07-29T04:02:00;18.20;99.90
21559;DHT22;10940;48.890;8.240;2023-07-29T04:04:25;18.20;99.90
21559;DHT22;10940;48.890;8.240;2023-07-29T04:06:51;18.30;99.90
21559;DHT22;10940;48.890;8.240;2023-07-29T04:09:17;18.40;99.90
21559;DHT22;10940;48.890;8.240;2023-07-29T04:11:43;18.40;99.90
21559;DHT22;10940;48.890;8.240;2023-07-29T04:14:08;18.40;99.90
21559;DHT22;10940;48.890;8.240;2023-07-29T04:16:34;18.50;99.90
21559;DHT22;10940;48.890;8.240;2023-07-29T04:19:00;18.50;99.90
21559;DHT22;10940;48.890;8.240;2023-07-29T04:21:26;18.50;99.90
21559;DHT22;10940;48.890;8.240;2023-07-29T04:23:52;18.50;99.90
21559;DHT22;10940;48.890;8.240;2023-07-29T04:26:17;18.50;99.90
21559;DHT22;10940;48.890;8.240;2023-07-29T04:28:43;18.50;99.90
21559;DHT22;10940;48.890;8.240;2023-07-29T04:31:09;18.50;99.90
21559;DHT22;10940;48.890;8.240;2023-07-29T04:33:34;18.50;99.90
21559;DHT22;10940;48.890;8.240;2023-07-29T04:36:00;18.60;99.90
21559;DHT22;10940;48.890;8.240;2023-07-29T04:38:31;18.60;99.90
21559;DHT22;10940;48.890;8.240;2023-07-29T04:41:00;18.60;99.90
21559;DHT22;10940;48.890;8.240;2023-07-29T04:43:32;18.60;99.90
21559;DHT22;10940;48.890;8.240;2023-07-29T04:45:58;18.60;99.90
21559;DHT22;10940;48.890;8.240;2023-07-29T04:48:23;18.60;99.90
21559;DHT22;10940;48.890;8.240;2023-07-29T04:50:49;18.60;99.90
21559;DHT22;10940;48.890;8.240;2023-07-29T04:53:15;18.60;99.90
21559;DHT22;10940;48.890;8.240;2023-07-29T04:55:42;18.60;99.90
21559;DHT22;10940;48.890;8.240;2023-07-29T04:58:08;18.60;99.90
21559;DHT22;10940;48.890;8.240;2023-07-29T05:00:34;18.60;99.90
21559;DHT22;10940;48.890;8.240;2023-07-29T05:03:00;18.60;99.90
21559;DHT22;10940;48.890;8.240;2023-07-29T05:05:26;18.60;99.90
21559;DHT22;10940;48.890;8.240;2023-07-29T05:07:52;18.60;99.90
21559;DHT22;10940;48.890;8.240;2023-07-29T05:10:18;18.60;99.90
21559;DHT22;10940;48.890;8.240;2023-07-29T05:12:44;18.60;99.90
21559;DHT22;10940;48.890;8.240;2023-07-29T05:15:10;18.60;99.90
21559;DHT22;10940;48.890;8.240;2023-07-29T05:17:35;18.60;99.90
21559;DHT22;10940;48.890;8.240;2023-07-29T05:20:01;18.60;99.90
21559;DHT22;10940;48.890;8.240;2023-07-29T05:22:27;18.70;99.90
21559;DHT22;10940;48.890;8.240;2023-07-29T05:24:52;18.70;99.90
21559;DHT22;10940;48.890;8.240;2023-07-29T05:27:18;18.70;99.90
21559;DHT22;10940;48.890;8.240;2023-07-29T05:29:44;18.70;99.90
21559;DHT22;10940;48.890;8.240;2023-07-29T05:32:09;18.70;99.90
21559;DHT22;10940;48.890;8.240;2023-07-29T05:34:35;18.80;99.90
21559;DHT22;10940;48.890;8.240;2023-07-29T05:37:00;18.80;99.90
21559;DHT22;10940;48.890;8.240;2023-07-29T05:39:26;18.90;99.90
21559;DHT22;10940;48.890;8.240;2023-07-29T05:41:52;19.00;99.90
21559;DHT22;10940;48.890;8.240;2023-07-29T05:44:17;19.00;99.90
21559;DHT22;10940;48.890;8.240;2023-07-29T05:46:43;19.00;99.90
21559;DHT22;10940;48.890;8.240;2023-07-29T05:49:08;19.00;99.90
21559;DHT22;10940;48.890;8.240;2023-07-29T05:51:34;19.10;99.90
21559;DHT22;10940;48.890;8.240;2023-07-29T05:54:00;19.10;99.90
21559;DHT22;10940;48.890;8.240;2023-07-29T05:56:25;19.20;99.90
21559;DHT22;10940;48.890;8.240;2023-07-29T05:58:51;19.20;99.90
21559;DHT22;10940;48.890;8.240;2023-07-29T06:01:16;19.20;99.90
21559;DHT22;10940;48.890;8.240;2023-07-29T06:03:42;19.20;99.90
21559;DHT22;10940;48.890;8.240;2023-07-29T06:06:08;19.20;99.90
21559;DHT22;10940;48.890;8.240;2023-07-29T06:08:34;19.20;99.90
21559;DHT22;10940;48.890;8.240;2023-07-29T06:11:00;19.20;99.90
21559;DHT22;10940;48.890;8.240;2023-07-29T06:13:26;19.20;99.90
21559;DHT22;10940;48.890;8.240;2023-07-29T06:15:51;19.20;99.90
21559;DHT22;10940;48.890;8.240;2023-07-29T06:18:17;19.20;99.90
21559;DHT22;10940;48.890;8.240;2023-07-29T06:20:43;19.20;99.90
21559;DHT22;10940;48.890;8.240;2023-07-29T06:23:09;19.20;99.90
21559;DHT22;10940;48.890;8.240;2023-07-29T06:25:34;19.20;99.90
21559;DHT22;10940;48.890;8.240;2023-07-29T06:28:00;19.20;99.90
21559;DHT22;10940;48.890;8.240;2023-07-29T06:30:26;19.30;99.90
21559;DHT22;10940;48.890;8.240;2023-07-29T06:32:51;19.30;99.90
21559;DHT22;10940;48.890;8.240;2023-07-29T06:35:17;19.30;99.90
21559;DHT22;10940;48.890;8.240;2023-07-29T06:37:43;19.30;99.90
21559;DHT22;10940;48.890;8.240;2023-07-29T06:40:09;19.30;99.90
21559;DHT22;10940;48.890;8.240;2023-07-29T06:42:34;19.30;99.90
21559;DHT22;10940;48.890;8.240;2023-07-29T06:45:00;19.30;99.90
21559;DHT22;10940;48.890;8.240;2023-07-29T06:47:26;19.30;99.90
21559;DHT22;10940;48.890;8.240;2023-07-29T06:49:53;19.30;99.90
21559;DHT22;10940;48.890;8.240;2023-07-29T06:52:19;19.30;99.90
21559;DHT22;10940;48.890;8.240;2023-07-29T06:54:45;19.40;99.90
21559;DHT22;10940;48.890;8.240;2023-07-29T06:57:10;19.40;99.90
21559;DHT22;10940;48.890;8.240;2023-07-29T06:59:36;19.40;99.90
21559;DHT22;10940;48.890;8.240;2023-07-29T07:02:04;19.40;99.90
21559;DHT22;10940;48.890;8.240;2023-07-29T07:04:30;19.40;99.90
21559;DHT22;10940;48.890;8.240;2023-07-29T07:06:56;19.50;99.90
21559;DHT22;10940;48.890;8.240;2023-07-29T07:09:22;19.50;99.90
21559;DHT22;10940;48.890;8.240;2023-07-29T07:11:47;19.50;99.90
21559;DHT22;10940;48.890;8.240;2023-07-29T07:14:13;19.60;99.90
21559;DHT22;10940;48.890;8.240;2023-07-29T07:16:39;19.70;99.90
21559;DHT22;10940;48.890;8.240;2023-07-29T07:19:05;19.80;99.90
21559;DHT22;10940;48.890;8.240;2023-07-29T07:21:31;19.90;99.90
21559;DHT22;10940;48.890;8.240;2023-07-29T07:23:58;20.10;99.90
21559;DHT22;10940;48.890;8.240;2023-07-29T07:26:23;20.20;99.90
21559;DHT22;10940;48.890;8.240;2023-07-29T07:28:49;20.30;99.90
21559;DHT22;10940;48.890;8.240;2023-07-29T07:31:17;20.40;99.90
21559;DHT22;10940;48.890;8.240;2023-07-29T07:33:42;20.50;99.90
21559;DHT22;10940;48.890;8.240;2023-07-29T07:36:08;20.70;99.90
21559;DHT22;10940;48.890;8.240;2023-07-29T07:38:34;20.80;99.90
21559;DHT22;10940;48.890;8.240;2023-07-29T07:40:59;20.90;99.90
21559;DHT22;10940;48.890;8.240;2023-07-29T07:43:25;21.10;99.90
21559;DHT22;10940;48.890;8.240;2023-07-29T07:45:57;21.20;99.90
21559;DHT22;10940;48.890;8.240;2023-07-29T07:48:23;21.20;99.90
21559;DHT22;10940;48.890;8.240;2023-07-29T07:50:48;21.20;99.90
21559;DHT22;10940;48.890;8.240;2023-07-29T07:53:17;21.30;99.90
21559;DHT22;10940;48.890;8.240;2023-07-29T07:56:00;21.20;99.90
21559;DHT22;10940;48.890;8.240;2023-07-29T07:58:42;21.30;99.90
21559;DHT22;10940;48.890;8.240;2023-07-29T08:01:39;21.20;99.90
21559;DHT22;10940;48.890;8.240;2023-07-29T08:04:06;21.40;99.90
21559;DHT22;10940;48.890;8.240;2023-07-29T08:06:32;21.40;99.90
21559;DHT22;10940;48.890;8.240;2023-07-29T08:08:58;21.50;99.90
21559;DHT22;10940;48.890;8.240;2023-07-29T08:11:24;21.60;99.90
21559;DHT22;10940;48.890;8.240;2023-07-29T08:13:50;21.60;99.90
21559;DHT22;10940;48.890;8.240;2023-07-29T08:16:15;21.70;99.90
21559;DHT22;10940;48.890;8.240;2023-07-29T08:18:41;21.70;99.90
21559;DHT22;10940;48.890;8.240;2023-07-29T08:21:07;21.70;99.90
21559;DHT22;10940;48.890;8.240;2023-07-29T08:23:33;21.80;99.90
21559;DHT22;10940;48.890;8.240;2023-07-29T08:26:01;21.80;99.90
21559;DHT22;10940;48.890;8.240;2023-07-29T08:28:35;21.80;99.90
21559;DHT22;10940;48.890;8.240;2023-07-29T08:31:01;21.80;99.90
21559;DHT22;10940;48.890;8.240;2023-07-29T08:33:28;21.80;99.90
21559;DHT22;10940;48.890;8.240;2023-07-29T08:35:54;21.70;99.90
21559;DHT22;10940;48.890;8.240;2023-07-29T08:38:20;21.60;99.90
21559;DHT22;10940;48.890;8.240;2023-07-29T08:41:04;21.60;99.90
21559;DHT22;10940;48.890;8.240;2023-07-29T08:43:32;21.40;99.90
21559;DHT22;10940;48.890;8.240;2023-07-29T08:45:59;21.30;99.90
21559;DHT22;10940;48.890;8.240;2023-07-29T08:48:41;21.20;99.90
21559;DHT22;10940;48.890;8.240;2023-07-29T08:51:11;21.20;99.90
21559;DHT22;10940;48.890;8.240;2023-07-29T08:53:38;21.00;99.90
21559;DHT22;10940;48.890;8.240;2023-07-29T08:56:05;20.90;99.90
21559;DHT22;10940;48.890;8.240;2023-07-29T08:58:32;20.80;99.90
21559;DHT22;10940;48.890;8.240;2023-07-29T09:00:58;20.60;99.90
21559;DHT22;10940;48.890;8.240;2023-07-29T09:03:23;20.60;99.90
21559;DHT22;10940;48.890;8.240;2023-07-29T09:05:50;20.50;99.90
21559;DHT22;10940;48.890;8.240;2023-07-29T09:08:16;20.50;99.90
21559;DHT22;10940;48.890;8.240;2023-07-29T09:10:42;20.40;99.90
21559;DHT22;10940;48.890;8.240;2023-07-29T09:13:08;20.40;99.90
21559;DHT22;10940;48.890;8.240;2023-07-29T09:15:36;20.40;99.90
21559;DHT22;10940;48.890;8.240;2023-07-29T09:18:15;20.50;99.90
21559;DHT22;10940;48.890;8.240;2023-07-29T09:20:41;20.60;99.90
21559;DHT22;10940;48.890;8.240;2023-07-29T09:23:09;20.80;99.90
21559;DHT22;10940;48.890;8.240;2023-07-29T09:25:38;20.90;99.90
21559;DHT22;10940;48.890;8.240;2023-07-29T09:28:12;21.10;99.90
21559;DHT22;10940;48.890;8.240;2023-07-29T09:30:40;21.10;99.90
21559;DHT22;10940;48.890;8.240;2023-07-29T09:33:08;21.30;99.90
21559;DHT22;10940;48.890;8.240;2023-07-29T09:35:35;21.40;99.90
21559;DHT22;10940;48.890;8.240;2023-07-29T09:38:05;21.50;99.90
21559;DHT22;10940;48.890;8.240;2023-07-29T09:40:39;21.60;99.90
21559;DHT22;10940;48.890;8.240;2023-07-29T09:43:06;21.60;99.90
21559;DHT22;10940;48.890;8.240;2023-07-29T09:45:34;21.70;99.90
21559;DHT22;10940;48.890;8.240;2023-07-29T09:48:01;21.70;99.90
21559;DHT22;10940;48.890;8.240;2023-07-29T09:50:27;21.80;99.90
21559;DHT22;10940;48.890;8.240;2023-07-29T09:52:57;21.90;99.90
21559;DHT22;10940;48.890;8.240;2023-07-29T09:55:28;22.00;99.90
21559;DHT22;10940;48.890;8.240;2023-07-29T09:57:59;22.10;99.90
21559;DHT22;10940;48.890;8.240;2023-07-29T10:00:33;22.20;99.90
21559;DHT22;10940;48.890;8.240;2023-07-29T10:02:59;22.30;99.90
21559;DHT22;10940;48.890;8.240;2023-07-29T10:05:28;22.30;99.90
21559;DHT22;10940;48.890;8.240;2023-07-29T10:07:56;22.30;99.90
21559;DHT22;10940;48.890;8.240;2023-07-29T10:10:22;22.30;99.90
21559;DHT22;10940;48.890;8.240;2023-07-29T10:12:48;22.30;99.90
21559;DHT22;10940;48.890;8.240;2023-07-29T10:15:14;22.30;99.90
21559;DHT22;10940;48.890;8.240;2023-07-29T10:17:42;22.30;99.90
21559;DHT22;10940;48.890;8.240;2023-07-29T10:20:09;22.40;99.90
21559;DHT22;10940;48.890;8.240;2023-07-29T10:22:43;22.40;99.90
21559;DHT22;10940;48.890;8.240;2023-07-29T10:25:19;22.40;99.90
21559;DHT22;10940;48.890;8.240;2023-07-29T10:28:06;22.50;99.90
21559;DHT22;10940;48.890;8.240;2023-07-29T10:30:33;22.50;99.90
21559;DHT22;10940;48.890;8.240;2023-07-29T10:33:03;22.50;99.90
21559;DHT22;10940;48.890;8.240;2023-07-29T10:35:31;22.60;99.90
21559;DHT22;10940;48.890;8.240;2023-07-29T10:37:59;22.70;99.90
21559;DHT22;10940;48.890;8.240;2023-07-29T10:40:25;22.80;99.90
21559;DHT22;10940;48.890;8.240;2023-07-29T10:43:11;22.90;99.90
21559;DHT22;10940;48.890;8.240;2023-07-29T10:45:39;23.10;99.90
21559;DHT22;10940;48.890;8.240;2023-07-29T10:51:29;23.30;99.90
21559;DHT22;10940;48.890;8.240;2023-07-29T10:53:58;23.30;99.90
21559;DHT22;10940;48.890;8.240;2023-07-29T10:56:32;23.40;99.90
21559;DHT22;10940;48.890;8.240;2023-07-29T11:01:59;23.50;99.90
21559;DHT22;10940;48.890;8.240;2023-07-29T11:04:46;23.70;99.90
21559;DHT22;10940;48.890;8.240;2023-07-29T11:09:54;23.90;99.90
21559;DHT22;10940;48.890;8.240;2023-07-29T11:12:41;24.00;99.90
21559;DHT22;10940;48.890;8.240;2023-07-29T11:17:39;24.30;99.90
21559;DHT22;10940;48.890;8.240;2023-07-29T11:20:05;24.50;99.90
21559;DHT22;10940;48.890;8.240;2023-07-29T11:22:33;24.70;99.90
21559;DHT22;10940;48.890;8.240;2023-07-29T11:24:58;24.90;99.90
21559;DHT22;10940;48.890;8.240;2023-07-29T11:27:27;25.10;99.90
21559;DHT22;10940;48.890;8.240;2023-07-29T11:29:57;25.20;99.90
21559;DHT22;10940;48.890;8.240;2023-07-29T11:32:32;25.40;99.90
21559;DHT22;10940;48.890;8.240;2023-07-29T11:35:03;25.60;99.90
21559;DHT22;10940;48.890;8.240;2023-07-29T11:37:29;25.70;99.90
21559;DHT22;10940;48.890;8.240;2023-07-29T11:39:55;25.70;99.90
21559;DHT22;10940;48.890;8.240;2023-07-29T11:42:20;25.80;99.90
21559;DHT22;10940;48.890;8.240;2023-07-29T11:44:46;25.90;99.90
21559;DHT22;10940;48.890;8.240;2023-07-29T11:47:13;26.00;99.90
21559;DHT22;10940;48.890;8.240;2023-07-29T11:49:39;26.10;99.90
21559;DHT22;10940;48.890;8.240;2023-07-29T11:52:10;26.00;99.90
21559;DHT22;10940;48.890;8.240;2023-07-29T11:54:37;25.90;99.90
21559;DHT22;10940;48.890;8.240;2023-07-29T11:57:06;25.80;99.90
21559;DHT22;10940;48.890;8.240;2023-07-29T11:59:34;25.80;99.90
21559;DHT22;10940;48.890;8.240;2023-07-29T12:02:11;25.90;99.90
21559;DHT22;10940;48.890;8.240;2023-07-29T12:04:38;25.80;99.90
21559;DHT22;10940;48.890;8.240;2023-07-29T12:07:04;25.80;99.90
21559;DHT22;10940;48.890;8.240;2023-07-29T12:09:30;25.80;99.90
21559;DHT22;10940;48.890;8.240;2023-07-29T12:11:56;25.70;99.90
21559;DHT22;10940;48.890;8.240;2023-07-29T12:14:26;25.80;99.90
21559;DHT22;10940;48.890;8.240;2023-07-29T12:16:52;25.90;99.90
21559;DHT22;10940;48.890;8.240;2023-07-29T12:19:19;26.00;99.90
21559;DHT22;10940;48.890;8.240;2023-07-29T12:21:47;26.00;99.90
21559;DHT22;10940;48.890;8.240;2023-07-29T12:24:13;26.00;99.90
21559;DHT22;10940;48.890;8.240;2023-07-29T12:26:40;26.10;99.90
21559;DHT22;10940;48.890;8.240;2023-07-29T12:29:14;26.20;99.90
21559;DHT22;10940;48.890;8.240;2023-07-29T12:31:40;26.30;99.90
21559;DHT22;10940;48.890;8.240;2023-07-29T12:34:06;26.30;99.90
21559;DHT22;10940;48.890;8.240;2023-07-29T12:36:51;26.30;99.90
21559;DHT22;10940;48.890;8.240;2023-07-29T12:39:23;26.40;99.90
21559;DHT22;10940;48.890;8.240;2023-07-29T12:41:49;26.40;99.90
21559;DHT22;10940;48.890;8.240;2023-07-29T12:44:15;26.50;99.90
21559;DHT22;10940;48.890;8.240;2023-07-29T12:46:41;26.50;99.90
21559;DHT22;10940;48.890;8.240;2023-07-29T12:49:07;26.40;99.90
21559;DHT22;10940;48.890;8.240;2023-07-29T12:51:33;26.30;99.90
21559;DHT22;10940;48.890;8.240;2023-07-29T12:54:00;26.40;99.90
21559;DHT22;10940;48.890;8.240;2023-07-29T12:56:25;26.40;99.90
21559;DHT22;10940;48.890;8.240;2023-07-29T12:58:52;26.50;99.90
21559;DHT22;10940;48.890;8.240;2023-07-29T13:01:17;26.50;99.90
21559;DHT22;10940;48.890;8.240;2023-07-29T13:03:44;26.50;99.90
21559;DHT22;10940;48.890;8.240;2023-07-29T13:06:10;26.60;99.90
21559;DHT22;10940;48.890;8.240;2023-07-29T13:08:36;26.50;99.90
21559;DHT22;10940;48.890;8.240;2023-07-29T13:11:02;26.50;99.90
21559;DHT22;10940;48.890;8.240;2023-07-29T13:13:28;26.50;99.90
21559;DHT22;10940;48.890;8.240;2023-07-29T13:15:54;26.50;99.90
21559;DHT22;10940;48.890;8.240;2023-07-29T13:18:21;26.50;99.90
21559;DHT22;10940;48.890;8.240;2023-07-29T13:20:47;26.50;99.90
21559;DHT22;10940;48.890;8.240;2023-07-29T13:23:13;26.50;99.90
21559;DHT22;10940;48.890;8.240;2023-07-29T13:25:38;26.50;99.90
21559;DHT22;10940;48.890;8.240;2023-07-29T13:28:04;26.50;99.90
21559;DHT22;10940;48.890;8.240;2023-07-29T13:30:30;26.50;99.90
21559;DHT22;10940;48.890;8.240;2023-07-29T13:32:56;26.60;99.90
21559;DHT22;10940;48.890;8.240;2023-07-29T13:35:22;26.60;99.90
21559;DHT22;10940;48.890;8.240;2023-07-29T13:37:47;26.60;99.90
21559;DHT22;10940;48.890;8.240;2023-07-29T13:40:13;26.50;99.90
21559;DHT22;10940;48.890;8.240;2023-07-29T13:42:39;26.50;99.90
21559;DHT22;10940;48.890;8.240;2023-07-29T13:45:05;26.50;99.90
21559;DHT22;10940;48.890;8.240;2023-07-29T13:47:30;26.40;99.90
21559;DHT22;10940;48.890;8.240;2023-07-29T13:49:56;26.50;99.90
21559;DHT22;10940;48.890;8.240;2023-07-29T13:52:22;26.50;99.90
21559;DHT22;10940;48.890;8.240;2023-07-29T13:54:47;26.30;99.90
21559;DHT22;10940;48.890;8.240;2023-07-29T13:57:13;26.40;99.90
21559;DHT22;10940;48.890;8.240;2023-07-29T13:59:38;26.50;99.90
21559;DHT22;10940;48.890;8.240;2023-07-29T14:02:07;26.60;99.90
21559;DHT22;10940;48.890;8.240;2023-07-29T14:04:33;26.60;99.90
21559;DHT22;10940;48.890;8.240;2023-07-29T14:06:59;26.60;99.90
21559;DHT22;10940;48.890;8.240;2023-07-29T14:09:26;26.60;99.90
21559;DHT22;10940;48.890;8.240;2023-07-29T14:11:51;26.50;99.90
21559;DHT22;10940;48.890;8.240;2023-07-29T14:14:17;26.50;99.90
21559;DHT22;10940;48.890;8.240;2023-07-29T14:16:43;26.50;99.90
21559;DHT22;10940;48.890;8.240;2023-07-29T14:19:08;26.50;99.90
21559;DHT22;10940;48.890;8.240;2023-07-29T14:21:34;26.60;99.90
21559;DHT22;10940;48.890;8.240;2023-07-29T14:24:00;26.70;99.90
21559;DHT22;10940;48.890;8.240;2023-07-29T14:26:25;26.80;99.90
21559;DHT22;10940;48.890;8.240;2023-07-29T14:28:51;26.90;99.90
21559;DHT22;10940;48.890;8.240;2023-07-29T14:31:17;27.00;99.90
21559;DHT22;10940;48.890;8.240;2023-07-29T14:33:43;27.10;99.90
21559;DHT22;10940;48.890;8.240;2023-07-29T14:36:09;27.10;99.90
21559;DHT22;10940;48.890;8.240;2023-07-29T14:38:36;27.10;99.90
21559;DHT22;10940;48.890;8.240;2023-07-29T14:41:02;27.10;99.90
21559;DHT22;10940;48.890;8.240;2023-07-29T14:43:29;27.20;99.90
21559;DHT22;10940;48.890;8.240;2023-07-29T14:45:55;27.20;99.90
21559;DHT22;10940;48.890;8.240;2023-07-29T14:48:20;27.30;99.90
21559;DHT22;10940;48.890;8.240;2023-07-29T14:50:46;27.30;99.90
21559;DHT22;10940;48.890;8.240;2023-07-29T14:53:12;27.40;99.90
21559;DHT22;10940;48.890;8.240;2023-07-29T14:55:38;27.40;99.90
21559;DHT22;10940;48.890;8.240;2023-07-29T14:58:03;27.30;99.90
21559;DHT22;10940;48.890;8.240;2023-07-29T15:00:29;27.30;99.90
21559;DHT22;10940;48.890;8.240;2023-07-29T15:02:55;27.30;99.90
21559;DHT22;10940;48.890;8.240;2023-07-29T15:05:20;27.30;99.90
21559;DHT22;10940;48.890;8.240;2023-07-29T15:07:46;27.30;99.90
21559;DHT22;10940;48.890;8.240;2023-07-29T15:10:16;27.30;99.90
21559;DHT22;10940;48.890;8.240;2023-07-29T15:12:42;27.20;99.90
21559;DHT22;10940;48.890;8.240;2023-07-29T15:15:08;27.10;99.90
21559;DHT22;10940;48.890;8.240;2023-07-29T15:17:34;27.10;99.90
21559;DHT22;10940;48.890;8.240;2023-07-29T15:20:01;27.20;99.90
21559;DHT22;10940;48.890;8.240;2023-07-29T15:22:26;27.10;99.90
21559;DHT22;10940;48.890;8.240;2023-07-29T15:24:52;27.10;99.90
21559;DHT22;10940;48.890;8.240;2023-07-29T15:27:18;27.20;99.90
21559;DHT22;10940;48.890;8.240;2023-07-29T15:29:44;27.30;99.90
21559;DHT22;10940;48.890;8.240;2023-07-29T15:32:09;27.40;99.90
21559;DHT22;10940;48.890;8.240;2023-07-29T15:34:35;27.50;99.90
21559;DHT22;10940;48.890;8.240;2023-07-29T15:37:02;27.60;99.90
21559;DHT22;10940;48.890;8.240;2023-07-29T15:39:31;27.60;99.90
21559;DHT22;10940;48.890;8.240;2023-07-29T15:41:57;27.60;99.90
21559;DHT22;10940;48.890;8.240;2023-07-29T15:44:23;27.60;99.90
21559;DHT22;10940;48.890;8.240;2023-07-29T15:46:48;27.60;99.90